Terminal Aerodrome Forecast
Issued by NWS

Home | Current Version | Previous Version | Graphics & Text | Print | Product List | Glossary On
Versions: 1 2 3 4 5 6 7 8 9 10 11 12 13 14 15 16
010
FTUS43 KBIS 210053 AAA
TAFMOT
TAF AMD
KMOT 210053Z 2101/2124 07008KT P6SM VCTS SCT090CB BKN200
      TEMPO 2101/2103 4SM TSRA BKN050CB
     FM210800 VRB05KT P6SM FEW090 SCT250=

USA.gov is the U.S. government's official web portal to all federal, state and local government web resources and services.